Arcata, CA

4:45 PM PDT on May 06, 2015 (GMT -0700)
Arcata | | Change Station
CLOSE
Current Station
Airport
Location: Arcata,
Elevation: 217 ft
Nearby Weather Stations
Active Advisory: Wind Advisory

Elev 217 ft 40.98 °N, 124.10 °W | Updated 52 minutes ago

Clear
Clear
59 °F
Feels Like 59 °F
N
20
Wind Variable Wind from NNW
Gusts 26 mph

Today
High -- | Low -- °F
--% Chance of Precip.
Yesterday
High -- | Low -- °F
Precip. -- in
6:08 AM 8:17 PM
Waning Gibbous, 92% visible
Pressure 30.01 in
Visibility 10.0 miles
Clouds Clear
Dew Point 44 °F
Humidity 58%
Rainfall 0.00 in
Snow Depth Not available.
UV 7 out of 12
Pollen 6.90 out of 12
Air Quality Not available.
Flu Activity Sporadic
METAR KACV 062253Z AUTO 34017G23KT 10SM CLR 15/07 A3000 RMK AO2 SLP163 T01500067

More Conditions Fewer Conditions

Pressure 30.01 in
Visibility 10.0 miles
Clouds Clear
Dew Point 44 °F
Humidity 58%
Rainfall 0.00 in
Snow Depth Not available.
UV 7 out of 12
Pollen 6.90 out of 12
Air Quality Not available.
Flu Activity Sporadic
METAR KACV 062253Z AUTO 34017G23KT 10SM CLR 15/07 A3000 RMK AO2 SLP163 T01500067

More Conditions Fewer Conditions

10-Day Weather Forecast

Almanac

Astronomy

May. 06, 2015 Rise Set
Actual Time
Civil Twilight
Nautical Twilight
Astronomical Twilight
Moon
Length of Visible Light
Length of Day
Tomorrow will be .
, % of the Moon is Illuminated

Today's Extremes

State Highs State Lows

Community

WunderPhotos

Upload Photos

1,819,043 photos uploaded!

WunderBlogs® & News

Nearby

Air Quality

  Air Quality AQ Index Pollutant
Not available.

Snow Depth

Station Depth Elevation

Earthquake Activity

City Distance Mag. Time & Date
Minimum magnitude displayed is 2.5.

Coastal Water Temperatures

Place Temperature

Stations

Nearby Weather Stations

Station Location Temp. Windchill Dew Point Humidity Wind Precip. Elev Updated Type
                   
Wind Advisory
Statement as of 4:35 PM PDT on May 06, 2015

... Wind Advisory in effect until 9 PM PDT this evening...

The National Weather Service in Eureka has issued a Wind
Advisory... which is in effect until 9 PM PDT this evening.

* Winds... NW to N winds 25 to 35 mph with gusts as high as 50 mph.

* Locations include... portions of coastal del Norte
County... including Crescent City.

* Highway(s) impacted... Highway 101 and the far western portion of
Highway 199. Strong winds can make driving
difficult... especially for high profile vehicles.

* For a detailed view of the hazard area... visit
http://www.Weather.Gov/Eureka/hazards

Precautionary/preparedness actions...

A Wind Advisory means that winds of 35 mph are expected. Winds
this strong can make driving difficult... especially for high
profile vehicles. Use extra caution.